Cloverdale, Vermont
Current Conditions -  °F | °C
As of 6:54 PM on Monday 22 Dec 2014 (Local Time) from KMVL Reporting Station
Overcast Overcast  
Wind Chill: 31°   Ceiling: 3600
Heat Index: 31°   Visibility: 10mi
Dew Point: 26°   Wind: 0mph
Humidity: 82%   Direction: NA
Pressure: 30.3"   Gusts: NA
Location:  44.6543°N, 72.8545°W
Report Text: KMVL 222354Z AUTO 00000KT 10SM FEW029 OVC036 M01/M03 A3030 RMK AO2 SLP273 T10061033 10006 21006 58001 TSNO
Loading
Personal Weather Stations






























Interactive Weather Map New forecast layout! Learn more

10-Day Weather Forecast

Advertisements
Track Severe Weather on mobile